Teterboro, New Jersey
Current Conditions -  °F | °C
As of 1:51 AM on Thursday 23 Oct 2014 (Local Time) from KTEB Reporting Station
Overcast Overcast  
Wind Chill: 53°   Ceiling: 2400
Heat Index: 53°   Visibility: 10mi
Dew Point: 45°   Wind: 17mph
Humidity: 74%   Direction: 360°N
Pressure: 29.72"   Gusts: 29mph
Location:  40.86°N, 74.06°W
Report Text: KTEB 230551Z 36015G25KT 10SM OVC024 12/07 A2972 RMK AO2 PK WND 36028/0512 SLP063 60031 T01170072 10117 20106 56013 $
Loading
Personal Weather Stations






























Interactive Weather Map New forecast layout! Learn more

10-Day Weather Forecast

Advertisements
Track Severe Weather on mobile